sensor_id;sensor_type;location;lat;lon;timestamp;P1;durP1;ratioP1;P2;durP2;ratioP2
70312;SDS011;57723;51.698;5.344;2023-02-28T00:00:51;1.80;;;0.50;;
70312;SDS011;57723;51.698;5.344;2023-02-28T00:03:17;2.30;;;0.60;;
70312;SDS011;57723;51.698;5.344;2023-02-28T00:05:42;1.33;;;0.50;;
70312;SDS011;57723;51.698;5.344;2023-02-28T00:08:08;0.73;;;0.50;;
70312;SDS011;57723;51.698;5.344;2023-02-28T00:10:34;1.00;;;0.60;;
70312;SDS011;57723;51.698;5.344;2023-02-28T00:13:00;0.90;;;0.60;;
70312;SDS011;57723;51.698;5.344;2023-02-28T00:15:26;0.80;;;0.60;;
70312;SDS011;57723;51.698;5.344;2023-02-28T00:17:51;1.90;;;0.70;;
70312;SDS011;57723;51.698;5.344;2023-02-28T00:20:17;0.77;;;0.53;;
70312;SDS011;57723;51.698;5.344;2023-02-28T00:22:43;1.00;;;0.63;;
70312;SDS011;57723;51.698;5.344;2023-02-28T00:25:09;0.50;;;0.47;;
70312;SDS011;57723;51.698;5.344;2023-02-28T00:27:35;1.00;;;0.70;;
70312;SDS011;57723;51.698;5.344;2023-02-28T00:30:01;0.50;;;0.50;;
70312;SDS011;57723;51.698;5.344;2023-02-28T00:32:26;4.73;;;1.40;;
70312;SDS011;57723;51.698;5.344;2023-02-28T00:34:51;2.60;;;0.50;;
70312;SDS011;57723;51.698;5.344;2023-02-28T00:37:17;0.90;;;0.50;;
70312;SDS011;57723;51.698;5.344;2023-02-28T00:39:42;1.00;;;0.45;;
70312;SDS011;57723;51.698;5.344;2023-02-28T00:42:08;1.05;;;0.50;;
70312;SDS011;57723;51.698;5.344;2023-02-28T00:44:33;0.98;;;0.52;;
70312;SDS011;57723;51.698;5.344;2023-02-28T00:46:58;0.87;;;0.50;;
70312;SDS011;57723;51.698;5.344;2023-02-28T00:49:24;0.80;;;0.50;;
70312;SDS011;57723;51.698;5.344;2023-02-28T00:51:50;0.93;;;0.63;;
70312;SDS011;57723;51.698;5.344;2023-02-28T00:54:15;0.80;;;0.53;;
70312;SDS011;57723;51.698;5.344;2023-02-28T00:56:41;0.88;;;0.60;;
70312;SDS011;57723;51.698;5.344;2023-02-28T00:59:06;1.63;;;0.57;;
70312;SDS011;57723;51.698;5.344;2023-02-28T01:01:31;0.70;;;0.60;;
70312;SDS011;57723;51.698;5.344;2023-02-28T01:03:57;0.40;;;0.40;;
70312;SDS011;57723;51.698;5.344;2023-02-28T01:06:22;0.97;;;0.57;;
70312;SDS011;57723;51.698;5.344;2023-02-28T01:08:48;0.40;;;0.40;;
70312;SDS011;57723;51.698;5.344;2023-02-28T01:11:14;0.65;;;0.50;;
70312;SDS011;57723;51.698;5.344;2023-02-28T01:13:40;0.47;;;0.40;;
70312;SDS011;57723;51.698;5.344;2023-02-28T01:16:06;3.33;;;0.57;;
70312;SDS011;57723;51.698;5.344;2023-02-28T01:18:32;0.95;;;0.60;;
70312;SDS011;57723;51.698;5.344;2023-02-28T01:20:57;0.50;;;0.50;;
70312;SDS011;57723;51.698;5.344;2023-02-28T01:23:23;0.60;;;0.50;;
70312;SDS011;57723;51.698;5.344;2023-02-28T01:25:51;1.30;;;0.67;;
70312;SDS011;57723;51.698;5.344;2023-02-28T01:28:17;1.02;;;0.60;;
70312;SDS011;57723;51.698;5.344;2023-02-28T01:30:48;1.27;;;0.65;;
70312;SDS011;57723;51.698;5.344;2023-02-28T01:33:13;0.77;;;0.50;;
70312;SDS011;57723;51.698;5.344;2023-02-28T01:35:39;0.60;;;0.50;;
70312;SDS011;57723;51.698;5.344;2023-02-28T01:38:04;0.70;;;0.50;;
70312;SDS011;57723;51.698;5.344;2023-02-28T01:40:30;1.70;;;0.57;;
70312;SDS011;57723;51.698;5.344;2023-02-28T01:42:55;0.70;;;0.67;;
70312;SDS011;57723;51.698;5.344;2023-02-28T01:47:50;0.60;;;0.50;;
70312;SDS011;57723;51.698;5.344;2023-02-28T01:50:20;2.72;;;0.90;;
70312;SDS011;57723;51.698;5.344;2023-02-28T01:52:46;0.70;;;0.45;;
70312;SDS011;57723;51.698;5.344;2023-02-28T01:55:12;0.82;;;0.50;;
70312;SDS011;57723;51.698;5.344;2023-02-28T01:57:40;0.50;;;0.50;;
70312;SDS011;57723;51.698;5.344;2023-02-28T02:00:07;1.70;;;0.60;;
70312;SDS011;57723;51.698;5.344;2023-02-28T02:02:34;1.42;;;0.40;;
70312;SDS011;57723;51.698;5.344;2023-02-28T02:05:08;0.60;;;0.60;;
70312;SDS011;57723;51.698;5.344;2023-02-28T02:07:38;0.90;;;0.40;;
70312;SDS011;57723;51.698;5.344;2023-02-28T02:10:06;1.17;;;0.50;;
70312;SDS011;57723;51.698;5.344;2023-02-28T02:12:43;0.85;;;0.60;;
70312;SDS011;57723;51.698;5.344;2023-02-28T02:17:48;1.05;;;0.60;;
70312;SDS011;57723;51.698;5.344;2023-02-28T02:25:42;0.85;;;0.47;;
70312;SDS011;57723;51.698;5.344;2023-02-28T02:30:53;0.70;;;0.50;;
70312;SDS011;57723;51.698;5.344;2023-02-28T02:36:04;1.10;;;0.50;;
70312;SDS011;57723;51.698;5.344;2023-02-28T02:38:35;0.55;;;0.50;;
70312;SDS011;57723;51.698;5.344;2023-02-28T02:46:40;0.73;;;0.40;;
70312;SDS011;57723;51.698;5.344;2023-02-28T02:48:45;1.23;;;0.50;;
70312;SDS011;57723;51.698;5.344;2023-02-28T02:51:14;0.68;;;0.43;;
70312;SDS011;57723;51.698;5.344;2023-02-28T02:53:46;0.47;;;0.40;;
70312;SDS011;57723;51.698;5.344;2023-02-28T02:56:14;0.40;;;0.40;;
70312;SDS011;57723;51.698;5.344;2023-02-28T02:58:41;1.10;;;0.43;;
70312;SDS011;57723;51.698;5.344;2023-02-28T03:01:08;0.63;;;0.40;;
70312;SDS011;57723;51.698;5.344;2023-02-28T03:03:35;1.27;;;0.50;;
70312;SDS011;57723;51.698;5.344;2023-02-28T03:06:00;0.40;;;0.40;;
70312;SDS011;57723;51.698;5.344;2023-02-28T03:08:26;0.65;;;0.40;;
70312;SDS011;57723;51.698;5.344;2023-02-28T03:10:55;0.40;;;0.40;;
70312;SDS011;57723;51.698;5.344;2023-02-28T03:13:29;0.60;;;0.50;;
70312;SDS011;57723;51.698;5.344;2023-02-28T03:16:03;0.88;;;0.50;;
70312;SDS011;57723;51.698;5.344;2023-02-28T03:18:46;1.25;;;0.50;;
70312;SDS011;57723;51.698;5.344;2023-02-28T03:21:36;1.65;;;0.52;;
70312;SDS011;57723;51.698;5.344;2023-02-28T03:26:31;0.70;;;0.50;;
70312;SDS011;57723;51.698;5.344;2023-02-28T03:31:27;0.73;;;0.50;;
70312;SDS011;57723;51.698;5.344;2023-02-28T03:34:03;1.20;;;0.40;;
70312;SDS011;57723;51.698;5.344;2023-02-28T03:36:30;0.98;;;0.50;;
70312;SDS011;57723;51.698;5.344;2023-02-28T03:38:58;0.45;;;0.40;;
70312;SDS011;57723;51.698;5.344;2023-02-28T03:41:44;0.50;;;0.40;;
70312;SDS011;57723;51.698;5.344;2023-02-28T03:44:16;0.50;;;0.40;;
70312;SDS011;57723;51.698;5.344;2023-02-28T03:46:45;0.50;;;0.50;;
70312;SDS011;57723;51.698;5.344;2023-02-28T03:49:22;5.03;;;0.40;;
70312;SDS011;57723;51.698;5.344;2023-02-28T03:51:49;1.40;;;0.40;;
70312;SDS011;57723;51.698;5.344;2023-02-28T03:54:16;0.85;;;0.40;;
70312;SDS011;57723;51.698;5.344;2023-02-28T03:56:45;0.45;;;0.40;;
70312;SDS011;57723;51.698;5.344;2023-02-28T03:59:13;1.35;;;0.50;;
70312;SDS011;57723;51.698;5.344;2023-02-28T04:01:44;0.35;;;0.35;;
70312;SDS011;57723;51.698;5.344;2023-02-28T04:04:10;0.70;;;0.40;;
70312;SDS011;57723;51.698;5.344;2023-02-28T04:06:36;0.55;;;0.30;;
70312;SDS011;57723;51.698;5.344;2023-02-28T04:09:04;0.40;;;0.40;;
70312;SDS011;57723;51.698;5.344;2023-02-28T04:11:47;0.40;;;0.40;;
70312;SDS011;57723;51.698;5.344;2023-02-28T04:14:13;1.05;;;0.40;;
70312;SDS011;57723;51.698;5.344;2023-02-28T04:16:40;0.70;;;0.40;;
70312;SDS011;57723;51.698;5.344;2023-02-28T04:19:06;0.65;;;0.40;;
70312;SDS011;57723;51.698;5.344;2023-02-28T04:21:33;1.10;;;0.50;;
70312;SDS011;57723;51.698;5.344;2023-02-28T04:23:59;0.47;;;0.38;;
70312;SDS011;57723;51.698;5.344;2023-02-28T04:26:35;0.40;;;0.30;;
70312;SDS011;57723;51.698;5.344;2023-02-28T04:29:01;0.40;;;0.40;;
70312;SDS011;57723;51.698;5.344;2023-02-28T04:31:27;0.40;;;0.40;;
70312;SDS011;57723;51.698;5.344;2023-02-28T04:33:52;0.85;;;0.40;;
70312;SDS011;57723;51.698;5.344;2023-02-28T04:36:18;0.40;;;0.40;;
70312;SDS011;57723;51.698;5.344;2023-02-28T04:38:43;0.40;;;0.40;;
70312;SDS011;57723;51.698;5.344;2023-02-28T04:41:09;0.40;;;0.30;;
70312;SDS011;57723;51.698;5.344;2023-02-28T04:43:34;0.30;;;0.30;;
70312;SDS011;57723;51.698;5.344;2023-02-28T04:46:01;0.40;;;0.40;;
70312;SDS011;57723;51.698;5.344;2023-02-28T04:48:30;0.80;;;0.40;;
70312;SDS011;57723;51.698;5.344;2023-02-28T04:50:59;0.88;;;0.50;;
70312;SDS011;57723;51.698;5.344;2023-02-28T04:53:24;0.70;;;0.30;;
70312;SDS011;57723;51.698;5.344;2023-02-28T04:55:50;0.43;;;0.40;;
70312;SDS011;57723;51.698;5.344;2023-02-28T04:58:15;0.67;;;0.40;;
70312;SDS011;57723;51.698;5.344;2023-02-28T05:00:41;0.83;;;0.50;;
70312;SDS011;57723;51.698;5.344;2023-02-28T05:03:06;0.50;;;0.40;;
70312;SDS011;57723;51.698;5.344;2023-02-28T05:05:31;0.30;;;0.30;;
70312;SDS011;57723;51.698;5.344;2023-02-28T05:07:57;0.93;;;0.50;;
70312;SDS011;57723;51.698;5.344;2023-02-28T05:10:22;0.90;;;0.50;;
70312;SDS011;57723;51.698;5.344;2023-02-28T05:12:47;0.40;;;0.40;;
70312;SDS011;57723;51.698;5.344;2023-02-28T05:15:14;0.40;;;0.30;;
70312;SDS011;57723;51.698;5.344;2023-02-28T05:17:39;0.63;;;0.50;;
70312;SDS011;57723;51.698;5.344;2023-02-28T05:20:05;0.40;;;0.40;;
70312;SDS011;57723;51.698;5.344;2023-02-28T05:22:31;0.45;;;0.40;;
70312;SDS011;57723;51.698;5.344;2023-02-28T05:24:57;0.60;;;0.40;;
70312;SDS011;57723;51.698;5.344;2023-02-28T05:27:22;0.40;;;0.40;;
70312;SDS011;57723;51.698;5.344;2023-02-28T05:29:47;0.32;;;0.30;;
70312;SDS011;57723;51.698;5.344;2023-02-28T05:32:13;0.83;;;0.43;;
70312;SDS011;57723;51.698;5.344;2023-02-28T05:34:38;0.40;;;0.40;;
70312;SDS011;57723;51.698;5.344;2023-02-28T05:37:04;0.47;;;0.40;;
70312;SDS011;57723;51.698;5.344;2023-02-28T05:39:30;0.50;;;0.40;;
70312;SDS011;57723;51.698;5.344;2023-02-28T05:41:55;0.60;;;0.50;;
70312;SDS011;57723;51.698;5.344;2023-02-28T05:44:30;0.53;;;0.40;;
70312;SDS011;57723;51.698;5.344;2023-02-28T05:46:55;0.60;;;0.50;;
70312;SDS011;57723;51.698;5.344;2023-02-28T05:49:21;0.37;;;0.33;;
70312;SDS011;57723;51.698;5.344;2023-02-28T05:51:46;0.67;;;0.40;;
70312;SDS011;57723;51.698;5.344;2023-02-28T05:54:11;0.40;;;0.40;;
70312;SDS011;57723;51.698;5.344;2023-02-28T05:56:36;0.40;;;0.40;;
70312;SDS011;57723;51.698;5.344;2023-02-28T05:59:06;1.02;;;0.50;;
70312;SDS011;57723;51.698;5.344;2023-02-28T06:01:35;1.00;;;0.43;;
70312;SDS011;57723;51.698;5.344;2023-02-28T06:04:00;1.95;;;0.40;;
70312;SDS011;57723;51.698;5.344;2023-02-28T06:06:29;0.57;;;0.50;;
70312;SDS011;57723;51.698;5.344;2023-02-28T06:08:55;0.32;;;0.32;;
70312;SDS011;57723;51.698;5.344;2023-02-28T06:11:22;0.40;;;0.40;;
70312;SDS011;57723;51.698;5.344;2023-02-28T06:13:53;0.88;;;0.47;;
70312;SDS011;57723;51.698;5.344;2023-02-28T06:16:18;0.73;;;0.40;;
70312;SDS011;57723;51.698;5.344;2023-02-28T06:18:44;1.10;;;0.30;;
70312;SDS011;57723;51.698;5.344;2023-02-28T06:21:09;2.57;;;0.60;;
70312;SDS011;57723;51.698;5.344;2023-02-28T06:23:35;2.03;;;0.50;;
70312;SDS011;57723;51.698;5.344;2023-02-28T06:26:00;1.70;;;0.50;;
70312;SDS011;57723;51.698;5.344;2023-02-28T06:28:25;1.93;;;0.53;;
70312;SDS011;57723;51.698;5.344;2023-02-28T06:30:51;2.77;;;0.70;;
70312;SDS011;57723;51.698;5.344;2023-02-28T06:33:16;3.60;;;0.65;;
70312;SDS011;57723;51.698;5.344;2023-02-28T06:35:54;1.30;;;0.60;;
70312;SDS011;57723;51.698;5.344;2023-02-28T06:38:23;1.83;;;1.40;;
70312;SDS011;57723;51.698;5.344;2023-02-28T06:40:55;4.20;;;3.00;;
70312;SDS011;57723;51.698;5.344;2023-02-28T06:43:21;10.27;;;9.65;;
70312;SDS011;57723;51.698;5.344;2023-02-28T06:45:46;16.38;;;15.40;;
70312;SDS011;57723;51.698;5.344;2023-02-28T06:48:12;24.37;;;21.90;;
70312;SDS011;57723;51.698;5.344;2023-02-28T06:50:37;12.60;;;11.73;;
70312;SDS011;57723;51.698;5.344;2023-02-28T06:53:03;4.93;;;0.57;;
70312;SDS011;57723;51.698;5.344;2023-02-28T06:55:28;3.77;;;0.80;;
70312;SDS011;57723;51.698;5.344;2023-02-28T06:57:53;3.53;;;0.50;;
70312;SDS011;57723;51.698;5.344;2023-02-28T07:00:20;1.38;;;0.50;;
70312;SDS011;57723;51.698;5.344;2023-02-28T07:02:45;0.97;;;0.50;;
70312;SDS011;57723;51.698;5.344;2023-02-28T07:05:11;1.63;;;0.60;;
70312;SDS011;57723;51.698;5.344;2023-02-28T07:07:36;3.63;;;0.80;;
70312;SDS011;57723;51.698;5.344;2023-02-28T07:10:03;1.67;;;0.57;;
70312;SDS011;57723;51.698;5.344;2023-02-28T07:12:29;3.10;;;0.60;;
70312;SDS011;57723;51.698;5.344;2023-02-28T07:14:54;2.70;;;0.80;;
70312;SDS011;57723;51.698;5.344;2023-02-28T07:17:20;0.88;;;0.60;;
70312;SDS011;57723;51.698;5.344;2023-02-28T07:19:46;1.70;;;0.90;;
70312;SDS011;57723;51.698;5.344;2023-02-28T07:22:11;1.10;;;0.40;;
70312;SDS011;57723;51.698;5.344;2023-02-28T07:24:36;1.00;;;0.50;;
70312;SDS011;57723;51.698;5.344;2023-02-28T07:27:03;1.73;;;0.50;;
70312;SDS011;57723;51.698;5.344;2023-02-28T07:29:28;1.17;;;0.70;;
70312;SDS011;57723;51.698;5.344;2023-02-28T07:31:53;0.90;;;0.40;;
70312;SDS011;57723;51.698;5.344;2023-02-28T07:34:19;3.47;;;0.70;;
70312;SDS011;57723;51.698;5.344;2023-02-28T07:36:45;4.20;;;1.10;;
70312;SDS011;57723;51.698;5.344;2023-02-28T07:39:14;4.15;;;2.83;;
70312;SDS011;57723;51.698;5.344;2023-02-28T07:41:40;7.90;;;7.20;;
70312;SDS011;57723;51.698;5.344;2023-02-28T07:44:10;14.90;;;14.00;;
70312;SDS011;57723;51.698;5.344;2023-02-28T07:46:39;23.65;;;22.30;;
70312;SDS011;57723;51.698;5.344;2023-02-28T07:49:04;28.93;;;27.23;;
70312;SDS011;57723;51.698;5.344;2023-02-28T07:51:30;1.67;;;1.47;;
70312;SDS011;57723;51.698;5.344;2023-02-28T07:53:55;0.90;;;0.50;;
70312;SDS011;57723;51.698;5.344;2023-02-28T07:56:21;1.42;;;0.60;;
70312;SDS011;57723;51.698;5.344;2023-02-28T07:58:47;2.20;;;0.80;;
70312;SDS011;57723;51.698;5.344;2023-02-28T08:01:12;1.17;;;0.52;;
70312;SDS011;57723;51.698;5.344;2023-02-28T08:03:38;2.70;;;0.60;;
70312;SDS011;57723;51.698;5.344;2023-02-28T08:06:04;1.93;;;0.70;;
70312;SDS011;57723;51.698;5.344;2023-02-28T08:08:30;1.20;;;0.60;;
70312;SDS011;57723;51.698;5.344;2023-02-28T08:10:59;1.25;;;0.63;;
70312;SDS011;57723;51.698;5.344;2023-02-28T08:13:25;1.70;;;0.65;;
70312;SDS011;57723;51.698;5.344;2023-02-28T08:15:52;2.70;;;0.63;;
70312;SDS011;57723;51.698;5.344;2023-02-28T08:18:17;0.82;;;0.50;;
70312;SDS011;57723;51.698;5.344;2023-02-28T08:20:43;0.83;;;0.40;;
70312;SDS011;57723;51.698;5.344;2023-02-28T08:23:08;1.50;;;0.63;;
70312;SDS011;57723;51.698;5.344;2023-02-28T08:25:33;1.03;;;0.50;;
70312;SDS011;57723;51.698;5.344;2023-02-28T08:27:59;1.00;;;0.53;;
70312;SDS011;57723;51.698;5.344;2023-02-28T08:30:24;1.50;;;0.60;;
70312;SDS011;57723;51.698;5.344;2023-02-28T08:32:50;1.45;;;0.52;;
70312;SDS011;57723;51.698;5.344;2023-02-28T08:35:15;1.17;;;0.60;;
70312;SDS011;57723;51.698;5.344;2023-02-28T08:37:40;2.17;;;0.53;;
70312;SDS011;57723;51.698;5.344;2023-02-28T08:40:06;2.03;;;0.43;;
70312;SDS011;57723;51.698;5.344;2023-02-28T08:42:31;1.02;;;0.57;;
70312;SDS011;57723;51.698;5.344;2023-02-28T08:44:57;1.53;;;0.57;;
70312;SDS011;57723;51.698;5.344;2023-02-28T08:47:22;1.20;;;0.60;;
70312;SDS011;57723;51.698;5.344;2023-02-28T08:49:48;2.17;;;0.50;;
70312;SDS011;57723;51.698;5.344;2023-02-28T08:52:13;0.83;;;0.50;;
70312;SDS011;57723;51.698;5.344;2023-02-28T08:54:38;2.05;;;0.50;;
70312;SDS011;57723;51.698;5.344;2023-02-28T08:57:04;1.33;;;0.40;;
70312;SDS011;57723;51.698;5.344;2023-02-28T08:59:29;1.53;;;0.50;;
70312;SDS011;57723;51.698;5.344;2023-02-28T09:01:54;1.53;;;0.60;;
70312;SDS011;57723;51.698;5.344;2023-02-28T09:04:20;1.40;;;0.40;;
70312;SDS011;57723;51.698;5.344;2023-02-28T09:06:48;0.73;;;0.40;;
70312;SDS011;57723;51.698;5.344;2023-02-28T09:09:14;0.80;;;0.50;;
70312;SDS011;57723;51.698;5.344;2023-02-28T09:11:41;0.60;;;0.40;;
70312;SDS011;57723;51.698;5.344;2023-02-28T09:14:07;0.43;;;0.40;;
70312;SDS011;57723;51.698;5.344;2023-02-28T09:16:33;1.00;;;0.50;;
70312;SDS011;57723;51.698;5.344;2023-02-28T09:18:58;1.25;;;0.55;;
70312;SDS011;57723;51.698;5.344;2023-02-28T09:21:24;1.37;;;0.50;;
70312;SDS011;57723;51.698;5.344;2023-02-28T09:23:50;1.03;;;0.50;;
70312;SDS011;57723;51.698;5.344;2023-02-28T09:26:20;2.75;;;0.60;;
70312;SDS011;57723;51.698;5.344;2023-02-28T09:28:46;0.50;;;0.47;;
70312;SDS011;57723;51.698;5.344;2023-02-28T09:31:15;1.63;;;0.40;;
70312;SDS011;57723;51.698;5.344;2023-02-28T09:33:41;0.80;;;0.40;;
70312;SDS011;57723;51.698;5.344;2023-02-28T09:36:07;1.20;;;0.60;;
70312;SDS011;57723;51.698;5.344;2023-02-28T09:38:33;0.90;;;0.50;;
70312;SDS011;57723;51.698;5.344;2023-02-28T09:41:00;0.83;;;0.60;;
70312;SDS011;57723;51.698;5.344;2023-02-28T09:43:26;0.60;;;0.47;;
70312;SDS011;57723;51.698;5.344;2023-02-28T09:46:00;1.42;;;0.50;;
70312;SDS011;57723;51.698;5.344;2023-02-28T09:48:37;0.95;;;0.50;;
70312;SDS011;57723;51.698;5.344;2023-02-28T09:53:39;0.82;;;0.50;;
70312;SDS011;57723;51.698;5.344;2023-02-28T09:56:09;0.65;;;0.50;;
70312;SDS011;57723;51.698;5.344;2023-02-28T10:01:17;1.92;;;0.40;;
70312;SDS011;57723;51.698;5.344;2023-02-28T10:03:47;0.93;;;0.40;;
70312;SDS011;57723;51.698;5.344;2023-02-28T10:06:17;1.23;;;0.50;;
70312;SDS011;57723;51.698;5.344;2023-02-28T10:11:16;1.03;;;0.50;;
70312;SDS011;57723;51.698;5.344;2023-02-28T10:16:11;1.80;;;0.70;;
70312;SDS011;57723;51.698;5.344;2023-02-28T10:18:41;2.13;;;0.60;;
70312;SDS011;57723;51.698;5.344;2023-02-28T10:21:13;0.57;;;0.50;;
70312;SDS011;57723;51.698;5.344;2023-02-28T10:23:40;1.17;;;0.52;;
70312;SDS011;57723;51.698;5.344;2023-02-28T10:26:09;0.90;;;0.43;;
70312;SDS011;57723;51.698;5.344;2023-02-28T10:28:36;0.60;;;0.40;;
70312;SDS011;57723;51.698;5.344;2023-02-28T10:31:02;1.10;;;0.52;;
70312;SDS011;57723;51.698;5.344;2023-02-28T10:33:29;1.45;;;0.60;;
70312;SDS011;57723;51.698;5.344;2023-02-28T10:35:55;0.67;;;0.47;;
70312;SDS011;57723;51.698;5.344;2023-02-28T10:38:22;0.80;;;0.40;;
70312;SDS011;57723;51.698;5.344;2023-02-28T10:40:48;1.05;;;0.60;;
70312;SDS011;57723;51.698;5.344;2023-02-28T10:45:39;1.37;;;0.60;;
70312;SDS011;57723;51.698;5.344;2023-02-28T10:50:32;0.50;;;0.40;;
70312;SDS011;57723;51.698;5.344;2023-02-28T10:55:35;0.77;;;0.47;;
70312;SDS011;57723;51.698;5.344;2023-02-28T10:58:00;0.90;;;0.43;;
70312;SDS011;57723;51.698;5.344;2023-02-28T11:00:26;0.70;;;0.60;;
70312;SDS011;57723;51.698;5.344;2023-02-28T11:02:56;0.65;;;0.45;;
70312;SDS011;57723;51.698;5.344;2023-02-28T11:05:32;1.03;;;0.40;;
70312;SDS011;57723;51.698;5.344;2023-02-28T11:10:30;1.03;;;0.60;;
70312;SDS011;57723;51.698;5.344;2023-02-28T11:12:57;1.23;;;0.50;;
70312;SDS011;57723;51.698;5.344;2023-02-28T11:20:42;1.13;;;0.60;;
70312;SDS011;57723;51.698;5.344;2023-02-28T11:23:14;1.88;;;0.52;;
70312;SDS011;57723;51.698;5.344;2023-02-28T11:25:40;0.80;;;0.43;;
70312;SDS011;57723;51.698;5.344;2023-02-28T11:28:25;0.80;;;0.50;;
70312;SDS011;57723;51.698;5.344;2023-02-28T11:31:36;0.80;;;0.55;;
70312;SDS011;57723;51.698;5.344;2023-02-28T11:36:28;1.17;;;0.47;;
70312;SDS011;57723;51.698;5.344;2023-02-28T11:39:01;1.42;;;0.47;;
70312;SDS011;57723;51.698;5.344;2023-02-28T11:47:11;0.82;;;0.50;;
70312;SDS011;57723;51.698;5.344;2023-02-28T11:50:03;0.40;;;0.40;;
70312;SDS011;57723;51.698;5.344;2023-02-28T12:03:09;0.68;;;0.50;;
70312;SDS011;57723;51.698;5.344;2023-02-28T12:05:46;1.02;;;0.50;;
70312;SDS011;57723;51.698;5.344;2023-02-28T12:13:46;0.80;;;0.50;;
70312;SDS011;57723;51.698;5.344;2023-02-28T12:18:53;0.80;;;0.50;;
70312;SDS011;57723;51.698;5.344;2023-02-28T12:24:21;1.50;;;0.50;;
70312;SDS011;57723;51.698;5.344;2023-02-28T12:26:52;0.80;;;0.50;;
70312;SDS011;57723;51.698;5.344;2023-02-28T12:30:02;1.15;;;0.50;;
70312;SDS011;57723;51.698;5.344;2023-02-28T12:37:44;0.40;;;0.40;;
70312;SDS011;57723;51.698;5.344;2023-02-28T12:40:22;0.85;;;0.50;;
70312;SDS011;57723;51.698;5.344;2023-02-28T12:43:04;0.85;;;0.50;;
70312;SDS011;57723;51.698;5.344;2023-02-28T12:45:34;1.17;;;0.55;;
70312;SDS011;57723;51.698;5.344;2023-02-28T12:48:04;0.50;;;0.50;;
70312;SDS011;57723;51.698;5.344;2023-02-28T12:50:31;1.30;;;0.57;;
70312;SDS011;57723;51.698;5.344;2023-02-28T12:53:02;1.00;;;0.50;;
70312;SDS011;57723;51.698;5.344;2023-02-28T13:03:46;3.10;;;0.55;;
70312;SDS011;57723;51.698;5.344;2023-02-28T13:09:02;0.43;;;0.40;;
70312;SDS011;57723;51.698;5.344;2023-02-28T13:11:39;0.40;;;0.40;;
70312;SDS011;57723;51.698;5.344;2023-02-28T13:14:18;1.15;;;0.40;;
70312;SDS011;57723;51.698;5.344;2023-02-28T13:17:18;1.77;;;0.40;;
70312;SDS011;57723;51.698;5.344;2023-02-28T13:19:39;0.85;;;0.50;;
70312;SDS011;57723;51.698;5.344;2023-02-28T13:22:05;0.70;;;0.50;;
70312;SDS011;57723;51.698;5.344;2023-02-28T13:24:51;0.82;;;0.50;;
70312;SDS011;57723;51.698;5.344;2023-02-28T13:27:22;0.82;;;0.60;;
70312;SDS011;57723;51.698;5.344;2023-02-28T13:29:54;1.17;;;0.50;;
70312;SDS011;57723;51.698;5.344;2023-02-28T13:39:52;0.50;;;0.33;;
70312;SDS011;57723;51.698;5.344;2023-02-28T13:47:36;0.80;;;0.50;;
70312;SDS011;57723;51.698;5.344;2023-02-28T13:50:14;0.90;;;0.40;;
70312;SDS011;57723;51.698;5.344;2023-02-28T13:58:10;0.30;;;0.30;;
70312;SDS011;57723;51.698;5.344;2023-02-28T14:05:43;0.40;;;0.40;;
70312;SDS011;57723;51.698;5.344;2023-02-28T14:08:16;0.40;;;0.40;;
70312;SDS011;57723;51.698;5.344;2023-02-28T14:10:47;0.90;;;0.40;;
70312;SDS011;57723;51.698;5.344;2023-02-28T14:13:58;0.63;;;0.50;;
70312;SDS011;57723;51.698;5.344;2023-02-28T14:16:01;0.40;;;0.40;;
70312;SDS011;57723;51.698;5.344;2023-02-28T14:21:04;0.50;;;0.50;;
70312;SDS011;57723;51.698;5.344;2023-02-28T14:24:16;0.43;;;0.35;;
70312;SDS011;57723;51.698;5.344;2023-02-28T14:37:14;0.27;;;0.27;;
70312;SDS011;57723;51.698;5.344;2023-02-28T14:39:41;0.55;;;0.40;;
70312;SDS011;57723;51.698;5.344;2023-02-28T14:42:25;0.50;;;0.40;;
70312;SDS011;57723;51.698;5.344;2023-02-28T14:44:55;0.88;;;0.40;;
70312;SDS011;57723;51.698;5.344;2023-02-28T14:47:26;0.40;;;0.40;;
70312;SDS011;57723;51.698;5.344;2023-02-28T14:49:52;0.80;;;0.45;;
70312;SDS011;57723;51.698;5.344;2023-02-28T14:54:43;0.30;;;0.30;;
70312;SDS011;57723;51.698;5.344;2023-02-28T14:57:22;0.43;;;0.40;;
70312;SDS011;57723;51.698;5.344;2023-02-28T14:59:56;1.00;;;0.40;;
70312;SDS011;57723;51.698;5.344;2023-02-28T15:02:23;0.80;;;0.40;;
70312;SDS011;57723;51.698;5.344;2023-02-28T15:04:52;0.50;;;0.45;;
70312;SDS011;57723;51.698;5.344;2023-02-28T15:07:17;0.50;;;0.50;;
70312;SDS011;57723;51.698;5.344;2023-02-28T15:09:43;0.60;;;0.43;;
70312;SDS011;57723;51.698;5.344;2023-02-28T15:12:09;0.60;;;0.30;;
70312;SDS011;57723;51.698;5.344;2023-02-28T15:14:37;0.63;;;0.43;;
70312;SDS011;57723;51.698;5.344;2023-02-28T15:17:05;0.50;;;0.40;;
70312;SDS011;57723;51.698;5.344;2023-02-28T15:19:34;0.40;;;0.40;;
70312;SDS011;57723;51.698;5.344;2023-02-28T15:22:08;0.32;;;0.30;;
70312;SDS011;57723;51.698;5.344;2023-02-28T15:27:06;0.50;;;0.40;;
70312;SDS011;57723;51.698;5.344;2023-02-28T15:29:34;0.50;;;0.40;;
70312;SDS011;57723;51.698;5.344;2023-02-28T15:32:05;0.80;;;0.50;;
70312;SDS011;57723;51.698;5.344;2023-02-28T15:37:06;0.60;;;0.40;;
70312;SDS011;57723;51.698;5.344;2023-02-28T15:39:47;0.30;;;0.30;;
70312;SDS011;57723;51.698;5.344;2023-02-28T15:42:18;0.68;;;0.43;;
70312;SDS011;57723;51.698;5.344;2023-02-28T15:44:43;0.30;;;0.30;;
70312;SDS011;57723;51.698;5.344;2023-02-28T15:47:20;0.55;;;0.47;;
70312;SDS011;57723;51.698;5.344;2023-02-28T15:50:01;0.73;;;0.40;;
70312;SDS011;57723;51.698;5.344;2023-02-28T15:52:40;0.75;;;0.40;;
70312;SDS011;57723;51.698;5.344;2023-02-28T15:55:20;1.75;;;0.50;;
70312;SDS011;57723;51.698;5.344;2023-02-28T15:57:46;0.52;;;0.43;;
70312;SDS011;57723;51.698;5.344;2023-02-28T16:00:14;0.73;;;0.32;;
70312;SDS011;57723;51.698;5.344;2023-02-28T16:02:40;0.47;;;0.40;;
70312;SDS011;57723;51.698;5.344;2023-02-28T16:07:35;0.40;;;0.40;;
70312;SDS011;57723;51.698;5.344;2023-02-28T16:10:00;0.45;;;0.45;;
70312;SDS011;57723;51.698;5.344;2023-02-28T16:12:30;0.47;;;0.40;;
70312;SDS011;57723;51.698;5.344;2023-02-28T16:15:00;0.30;;;0.30;;
70312;SDS011;57723;51.698;5.344;2023-02-28T16:17:29;0.30;;;0.30;;
70312;SDS011;57723;51.698;5.344;2023-02-28T16:19:55;0.77;;;0.30;;
70312;SDS011;57723;51.698;5.344;2023-02-28T16:22:21;1.07;;;0.50;;
70312;SDS011;57723;51.698;5.344;2023-02-28T16:24:46;0.40;;;0.40;;
70312;SDS011;57723;51.698;5.344;2023-02-28T16:27:20;0.57;;;0.50;;
70312;SDS011;57723;51.698;5.344;2023-02-28T16:29:46;0.40;;;0.40;;
70312;SDS011;57723;51.698;5.344;2023-02-28T16:32:13;0.40;;;0.40;;
70312;SDS011;57723;51.698;5.344;2023-02-28T16:34:40;0.50;;;0.40;;
70312;SDS011;57723;51.698;5.344;2023-02-28T16:37:12;0.70;;;0.50;;
70312;SDS011;57723;51.698;5.344;2023-02-28T16:39:38;0.40;;;0.40;;
70312;SDS011;57723;51.698;5.344;2023-02-28T16:42:04;0.37;;;0.37;;
70312;SDS011;57723;51.698;5.344;2023-02-28T16:44:30;0.40;;;0.33;;
70312;SDS011;57723;51.698;5.344;2023-02-28T16:46:56;0.57;;;0.50;;
70312;SDS011;57723;51.698;5.344;2023-02-28T16:49:22;0.30;;;0.30;;
70312;SDS011;57723;51.698;5.344;2023-02-28T16:51:47;0.68;;;0.45;;
70312;SDS011;57723;51.698;5.344;2023-02-28T16:54:13;0.47;;;0.47;;
70312;SDS011;57723;51.698;5.344;2023-02-28T16:56:39;1.10;;;0.70;;
70312;SDS011;57723;51.698;5.344;2023-02-28T16:59:07;0.55;;;0.40;;
70312;SDS011;57723;51.698;5.344;2023-02-28T17:01:33;2.08;;;0.40;;
70312;SDS011;57723;51.698;5.344;2023-02-28T17:03:59;0.40;;;0.40;;
70312;SDS011;57723;51.698;5.344;2023-02-28T17:06:28;1.20;;;0.50;;
70312;SDS011;57723;51.698;5.344;2023-02-28T17:08:54;0.70;;;0.33;;
70312;SDS011;57723;51.698;5.344;2023-02-28T17:11:19;0.40;;;0.40;;
70312;SDS011;57723;51.698;5.344;2023-02-28T17:13:45;1.60;;;0.43;;
70312;SDS011;57723;51.698;5.344;2023-02-28T17:16:43;0.40;;;0.40;;
70312;SDS011;57723;51.698;5.344;2023-02-28T17:19:03;0.63;;;0.40;;